sensor_id;sensor_type;location;lat;lon;timestamp;P1;durP1;ratioP1;P2;durP2;ratioP2
48667;SDS011;34453;52.198;5.004;2023-04-30T00:01:48;11.15;;;8.25;;
48667;SDS011;34453;52.198;5.004;2023-04-30T00:04:13;14.23;;;8.77;;
48667;SDS011;34453;52.198;5.004;2023-04-30T00:06:38;10.32;;;8.02;;
48667;SDS011;34453;52.198;5.004;2023-04-30T00:09:04;9.65;;;8.77;;
48667;SDS011;34453;52.198;5.004;2023-04-30T00:11:29;17.17;;;9.32;;
48667;SDS011;34453;52.198;5.004;2023-04-30T00:13:55;10.57;;;6.20;;
48667;SDS011;34453;52.198;5.004;2023-04-30T00:16:21;4.95;;;4.55;;
48667;SDS011;34453;52.198;5.004;2023-04-30T00:18:47;7.05;;;6.05;;
48667;SDS011;34453;52.198;5.004;2023-04-30T00:21:12;6.95;;;6.25;;
48667;SDS011;34453;52.198;5.004;2023-04-30T00:23:37;9.60;;;6.95;;
48667;SDS011;34453;52.198;5.004;2023-04-30T00:26:03;6.82;;;6.28;;
48667;SDS011;34453;52.198;5.004;2023-04-30T00:28:28;6.30;;;5.80;;
48667;SDS011;34453;52.198;5.004;2023-04-30T00:30:54;10.60;;;6.32;;
48667;SDS011;34453;52.198;5.004;2023-04-30T00:33:19;5.03;;;4.70;;
48667;SDS011;34453;52.198;5.004;2023-04-30T00:35:45;12.65;;;6.82;;
48667;SDS011;34453;52.198;5.004;2023-04-30T00:38:11;12.00;;;5.82;;
48667;SDS011;34453;52.198;5.004;2023-04-30T00:40:37;6.65;;;6.05;;
48667;SDS011;34453;52.198;5.004;2023-04-30T00:43:04;5.68;;;5.13;;
48667;SDS011;34453;52.198;5.004;2023-04-30T00:45:30;5.88;;;5.38;;
48667;SDS011;34453;52.198;5.004;2023-04-30T00:47:55;5.40;;;4.90;;
48667;SDS011;34453;52.198;5.004;2023-04-30T00:50:21;5.60;;;4.75;;
48667;SDS011;34453;52.198;5.004;2023-04-30T00:52:47;4.93;;;4.63;;
48667;SDS011;34453;52.198;5.004;2023-04-30T00:55:13;4.93;;;4.63;;
48667;SDS011;34453;52.198;5.004;2023-04-30T00:57:38;5.25;;;4.82;;
48667;SDS011;34453;52.198;5.004;2023-04-30T01:00:05;6.18;;;5.03;;
48667;SDS011;34453;52.198;5.004;2023-04-30T01:02:34;9.23;;;5.50;;
48667;SDS011;34453;52.198;5.004;2023-04-30T01:05:00;7.40;;;6.28;;
48667;SDS011;34453;52.198;5.004;2023-04-30T01:07:27;8.38;;;7.03;;
48667;SDS011;34453;52.198;5.004;2023-04-30T01:09:53;10.48;;;7.25;;
48667;SDS011;34453;52.198;5.004;2023-04-30T01:12:20;7.10;;;6.40;;
48667;SDS011;34453;52.198;5.004;2023-04-30T01:15:07;5.05;;;4.65;;
48667;SDS011;34453;52.198;5.004;2023-04-30T01:17:37;3.38;;;3.20;;
48667;SDS011;34453;52.198;5.004;2023-04-30T01:20:10;4.40;;;3.97;;
48667;SDS011;34453;52.198;5.004;2023-04-30T01:22:43;2.83;;;2.63;;
48667;SDS011;34453;52.198;5.004;2023-04-30T01:28:19;8.10;;;5.40;;
48667;SDS011;34453;52.198;5.004;2023-04-30T01:30:45;6.68;;;6.10;;
48667;SDS011;34453;52.198;5.004;2023-04-30T01:33:12;11.20;;;6.85;;
48667;SDS011;34453;52.198;5.004;2023-04-30T01:43:33;7.30;;;6.57;;
48667;SDS011;34453;52.198;5.004;2023-04-30T01:46:20;12.70;;;8.75;;
48667;SDS011;34453;52.198;5.004;2023-04-30T01:51:23;11.75;;;8.68;;
48667;SDS011;34453;52.198;5.004;2023-04-30T01:53:58;11.73;;;8.40;;
48667;SDS011;34453;52.198;5.004;2023-04-30T01:56:30;9.82;;;8.80;;
48667;SDS011;34453;52.198;5.004;2023-04-30T01:58:59;16.35;;;8.70;;
48667;SDS011;34453;52.198;5.004;2023-04-30T02:01:32;11.10;;;8.93;;
48667;SDS011;34453;52.198;5.004;2023-04-30T02:03:58;12.07;;;9.55;;
48667;SDS011;34453;52.198;5.004;2023-04-30T02:06:24;10.85;;;9.65;;
48667;SDS011;34453;52.198;5.004;2023-04-30T02:08:52;15.35;;;9.60;;
48667;SDS011;34453;52.198;5.004;2023-04-30T02:11:19;15.73;;;9.18;;
48667;SDS011;34453;52.198;5.004;2023-04-30T02:13:44;11.60;;;9.25;;
48667;SDS011;34453;52.198;5.004;2023-04-30T02:16:10;14.65;;;8.95;;
48667;SDS011;34453;52.198;5.004;2023-04-30T02:18:35;13.40;;;9.82;;
48667;SDS011;34453;52.198;5.004;2023-04-30T02:21:01;12.25;;;8.40;;
48667;SDS011;34453;52.198;5.004;2023-04-30T02:23:26;15.15;;;9.18;;
48667;SDS011;34453;52.198;5.004;2023-04-30T02:25:51;15.35;;;8.30;;
48667;SDS011;34453;52.198;5.004;2023-04-30T02:28:17;11.80;;;9.93;;
48667;SDS011;34453;52.198;5.004;2023-04-30T02:30:42;10.93;;;8.40;;
48667;SDS011;34453;52.198;5.004;2023-04-30T02:33:07;12.30;;;9.07;;
48667;SDS011;34453;52.198;5.004;2023-04-30T02:35:36;12.95;;;9.57;;
48667;SDS011;34453;52.198;5.004;2023-04-30T02:38:01;11.63;;;8.93;;
48667;SDS011;34453;52.198;5.004;2023-04-30T02:40:27;15.93;;;9.38;;
48667;SDS011;34453;52.198;5.004;2023-04-30T02:42:52;14.20;;;9.00;;
48667;SDS011;34453;52.198;5.004;2023-04-30T02:45:20;15.07;;;9.68;;
48667;SDS011;34453;52.198;5.004;2023-04-30T02:47:46;14.15;;;9.35;;
48667;SDS011;34453;52.198;5.004;2023-04-30T02:50:11;14.70;;;9.95;;
48667;SDS011;34453;52.198;5.004;2023-04-30T02:52:37;15.70;;;10.57;;
48667;SDS011;34453;52.198;5.004;2023-04-30T02:55:02;12.05;;;10.43;;
48667;SDS011;34453;52.198;5.004;2023-04-30T02:57:28;15.48;;;10.02;;
48667;SDS011;34453;52.198;5.004;2023-04-30T02:59:53;14.52;;;9.75;;
48667;SDS011;34453;52.198;5.004;2023-04-30T03:04:44;16.13;;;10.23;;
48667;SDS011;34453;52.198;5.004;2023-04-30T03:07:10;14.50;;;9.80;;
48667;SDS011;34453;52.198;5.004;2023-04-30T03:09:35;12.60;;;9.48;;
48667;SDS011;34453;52.198;5.004;2023-04-30T03:12:01;14.68;;;10.20;;
48667;SDS011;34453;52.198;5.004;2023-04-30T03:14:26;18.80;;;10.30;;
48667;SDS011;34453;52.198;5.004;2023-04-30T03:16:51;11.70;;;9.93;;
48667;SDS011;34453;52.198;5.004;2023-04-30T03:19:17;12.88;;;9.20;;
48667;SDS011;34453;52.198;5.004;2023-04-30T03:21:46;14.48;;;9.88;;
48667;SDS011;34453;52.198;5.004;2023-04-30T03:24:11;15.48;;;9.48;;
48667;SDS011;34453;52.198;5.004;2023-04-30T03:26:36;12.65;;;9.75;;
48667;SDS011;34453;52.198;5.004;2023-04-30T03:29:02;11.18;;;8.75;;
48667;SDS011;34453;52.198;5.004;2023-04-30T03:31:27;10.27;;;8.75;;
48667;SDS011;34453;52.198;5.004;2023-04-30T03:33:53;12.52;;;8.55;;
48667;SDS011;34453;52.198;5.004;2023-04-30T03:36:18;10.98;;;8.77;;
48667;SDS011;34453;52.198;5.004;2023-04-30T03:38:43;12.68;;;8.85;;
48667;SDS011;34453;52.198;5.004;2023-04-30T03:41:09;13.05;;;8.98;;
48667;SDS011;34453;52.198;5.004;2023-04-30T03:43:35;14.05;;;9.70;;
48667;SDS011;34453;52.198;5.004;2023-04-30T03:46:01;13.98;;;9.27;;
48667;SDS011;34453;52.198;5.004;2023-04-30T03:48:27;13.55;;;9.43;;
48667;SDS011;34453;52.198;5.004;2023-04-30T03:50:52;9.13;;;7.50;;
48667;SDS011;34453;52.198;5.004;2023-04-30T03:53:18;9.25;;;7.80;;
48667;SDS011;34453;52.198;5.004;2023-04-30T03:55:43;8.68;;;7.88;;
48667;SDS011;34453;52.198;5.004;2023-04-30T03:58:09;13.15;;;8.25;;
48667;SDS011;34453;52.198;5.004;2023-04-30T04:00:34;11.07;;;8.63;;
48667;SDS011;34453;52.198;5.004;2023-04-30T04:03:00;12.93;;;8.10;;
48667;SDS011;34453;52.198;5.004;2023-04-30T04:05:26;10.70;;;9.20;;
48667;SDS011;34453;52.198;5.004;2023-04-30T04:07:51;10.48;;;8.35;;
48667;SDS011;34453;52.198;5.004;2023-04-30T04:10:17;9.45;;;8.35;;
48667;SDS011;34453;52.198;5.004;2023-04-30T04:12:42;10.88;;;8.48;;
48667;SDS011;34453;52.198;5.004;2023-04-30T04:15:08;13.93;;;8.50;;
48667;SDS011;34453;52.198;5.004;2023-04-30T04:17:33;10.13;;;8.13;;
48667;SDS011;34453;52.198;5.004;2023-04-30T04:19:59;10.93;;;8.60;;
48667;SDS011;34453;52.198;5.004;2023-04-30T04:22:24;12.85;;;9.05;;
48667;SDS011;34453;52.198;5.004;2023-04-30T04:24:50;8.93;;;8.13;;
48667;SDS011;34453;52.198;5.004;2023-04-30T04:27:15;10.60;;;8.70;;
48667;SDS011;34453;52.198;5.004;2023-04-30T04:29:40;8.52;;;7.70;;
48667;SDS011;34453;52.198;5.004;2023-04-30T04:32:06;10.75;;;7.63;;
48667;SDS011;34453;52.198;5.004;2023-04-30T04:34:31;12.07;;;8.43;;
48667;SDS011;34453;52.198;5.004;2023-04-30T04:36:57;10.82;;;7.28;;
48667;SDS011;34453;52.198;5.004;2023-04-30T04:39:23;10.02;;;8.43;;
48667;SDS011;34453;52.198;5.004;2023-04-30T04:41:48;11.60;;;8.60;;
48667;SDS011;34453;52.198;5.004;2023-04-30T04:44:13;8.60;;;7.10;;
48667;SDS011;34453;52.198;5.004;2023-04-30T04:46:39;8.82;;;7.90;;
48667;SDS011;34453;52.198;5.004;2023-04-30T04:49:08;9.50;;;8.35;;
48667;SDS011;34453;52.198;5.004;2023-04-30T04:51:34;11.13;;;8.00;;
48667;SDS011;34453;52.198;5.004;2023-04-30T04:53:59;8.90;;;7.35;;
48667;SDS011;34453;52.198;5.004;2023-04-30T04:56:25;8.88;;;7.97;;
48667;SDS011;34453;52.198;5.004;2023-04-30T04:58:50;11.63;;;7.50;;
48667;SDS011;34453;52.198;5.004;2023-04-30T05:01:16;9.25;;;7.85;;
48667;SDS011;34453;52.198;5.004;2023-04-30T05:03:41;8.15;;;7.22;;
48667;SDS011;34453;52.198;5.004;2023-04-30T05:06:06;8.90;;;8.10;;
48667;SDS011;34453;52.198;5.004;2023-04-30T05:08:32;9.85;;;6.90;;
48667;SDS011;34453;52.198;5.004;2023-04-30T05:10:57;8.60;;;7.75;;
48667;SDS011;34453;52.198;5.004;2023-04-30T05:13:23;8.52;;;7.30;;
48667;SDS011;34453;52.198;5.004;2023-04-30T05:15:49;9.18;;;8.23;;
48667;SDS011;34453;52.198;5.004;2023-04-30T05:18:15;9.65;;;7.50;;
48667;SDS011;34453;52.198;5.004;2023-04-30T05:20:41;9.65;;;7.53;;
48667;SDS011;34453;52.198;5.004;2023-04-30T05:23:06;11.05;;;6.93;;
48667;SDS011;34453;52.198;5.004;2023-04-30T05:25:32;8.60;;;7.28;;
48667;SDS011;34453;52.198;5.004;2023-04-30T05:27:57;7.05;;;6.22;;
48667;SDS011;34453;52.198;5.004;2023-04-30T05:30:23;10.35;;;6.85;;
48667;SDS011;34453;52.198;5.004;2023-04-30T05:32:48;9.93;;;7.50;;
48667;SDS011;34453;52.198;5.004;2023-04-30T05:35:16;9.57;;;7.25;;
48667;SDS011;34453;52.198;5.004;2023-04-30T05:37:42;7.90;;;7.13;;
48667;SDS011;34453;52.198;5.004;2023-04-30T05:40:07;7.13;;;6.53;;
48667;SDS011;34453;52.198;5.004;2023-04-30T05:42:34;12.13;;;7.70;;
48667;SDS011;34453;52.198;5.004;2023-04-30T05:45:00;7.65;;;6.18;;
48667;SDS011;34453;52.198;5.004;2023-04-30T05:47:26;8.40;;;7.25;;
48667;SDS011;34453;52.198;5.004;2023-04-30T05:49:51;11.77;;;7.18;;
48667;SDS011;34453;52.198;5.004;2023-04-30T05:52:17;8.88;;;6.93;;
48667;SDS011;34453;52.198;5.004;2023-04-30T05:54:42;12.80;;;7.30;;
48667;SDS011;34453;52.198;5.004;2023-04-30T05:57:08;7.50;;;6.80;;
48667;SDS011;34453;52.198;5.004;2023-04-30T05:59:33;8.10;;;7.38;;
48667;SDS011;34453;52.198;5.004;2023-04-30T06:01:58;10.25;;;6.88;;
48667;SDS011;34453;52.198;5.004;2023-04-30T06:04:24;12.35;;;6.57;;
48667;SDS011;34453;52.198;5.004;2023-04-30T06:06:49;11.13;;;7.88;;
48667;SDS011;34453;52.198;5.004;2023-04-30T06:09:15;9.75;;;6.53;;
48667;SDS011;34453;52.198;5.004;2023-04-30T06:11:40;7.07;;;6.45;;
48667;SDS011;34453;52.198;5.004;2023-04-30T06:14:06;8.45;;;7.45;;
48667;SDS011;34453;52.198;5.004;2023-04-30T06:16:31;6.88;;;6.30;;
48667;SDS011;34453;52.198;5.004;2023-04-30T06:18:56;8.95;;;6.25;;
48667;SDS011;34453;52.198;5.004;2023-04-30T06:21:22;6.50;;;5.90;;
48667;SDS011;34453;52.198;5.004;2023-04-30T06:23:50;6.35;;;5.75;;
48667;SDS011;34453;52.198;5.004;2023-04-30T06:26:17;13.10;;;6.45;;
48667;SDS011;34453;52.198;5.004;2023-04-30T06:28:43;6.28;;;5.78;;
48667;SDS011;34453;52.198;5.004;2023-04-30T06:31:09;7.15;;;6.13;;
48667;SDS011;34453;52.198;5.004;2023-04-30T06:33:34;7.32;;;6.57;;
48667;SDS011;34453;52.198;5.004;2023-04-30T06:36:00;14.18;;;5.55;;
48667;SDS011;34453;52.198;5.004;2023-04-30T06:38:25;10.02;;;6.30;;
48667;SDS011;34453;52.198;5.004;2023-04-30T06:40:51;8.05;;;6.10;;
48667;SDS011;34453;52.198;5.004;2023-04-30T06:43:16;6.80;;;6.22;;
48667;SDS011;34453;52.198;5.004;2023-04-30T06:45:42;6.07;;;5.13;;
48667;SDS011;34453;52.198;5.004;2023-04-30T06:48:07;7.47;;;5.13;;
48667;SDS011;34453;52.198;5.004;2023-04-30T06:50:33;6.20;;;5.55;;
48667;SDS011;34453;52.198;5.004;2023-04-30T06:52:59;8.10;;;5.50;;
48667;SDS011;34453;52.198;5.004;2023-04-30T06:55:24;7.70;;;4.90;;
48667;SDS011;34453;52.198;5.004;2023-04-30T06:57:52;10.45;;;5.28;;
48667;SDS011;34453;52.198;5.004;2023-04-30T07:00:18;5.43;;;5.05;;
48667;SDS011;34453;52.198;5.004;2023-04-30T07:02:44;5.35;;;4.93;;
48667;SDS011;34453;52.198;5.004;2023-04-30T07:05:11;4.25;;;3.88;;
48667;SDS011;34453;52.198;5.004;2023-04-30T07:07:37;6.15;;;4.10;;
48667;SDS011;34453;52.198;5.004;2023-04-30T07:10:02;8.95;;;4.95;;
48667;SDS011;34453;52.198;5.004;2023-04-30T07:12:28;4.72;;;4.43;;
48667;SDS011;34453;52.198;5.004;2023-04-30T07:14:54;6.35;;;5.20;;
48667;SDS011;34453;52.198;5.004;2023-04-30T07:17:19;5.18;;;4.43;;
48667;SDS011;34453;52.198;5.004;2023-04-30T07:19:45;7.60;;;4.90;;
48667;SDS011;34453;52.198;5.004;2023-04-30T07:22:10;5.82;;;4.70;;
48667;SDS011;34453;52.198;5.004;2023-04-30T07:24:35;7.05;;;4.68;;
48667;SDS011;34453;52.198;5.004;2023-04-30T07:27:01;4.90;;;4.22;;
48667;SDS011;34453;52.198;5.004;2023-04-30T07:29:28;5.63;;;4.28;;
48667;SDS011;34453;52.198;5.004;2023-04-30T07:31:54;4.90;;;4.53;;
48667;SDS011;34453;52.198;5.004;2023-04-30T07:34:20;5.45;;;4.95;;
48667;SDS011;34453;52.198;5.004;2023-04-30T07:36:46;6.70;;;5.20;;
48667;SDS011;34453;52.198;5.004;2023-04-30T07:39:12;5.00;;;4.60;;
48667;SDS011;34453;52.198;5.004;2023-04-30T07:41:39;5.70;;;5.18;;
48667;SDS011;34453;52.198;5.004;2023-04-30T07:44:04;5.40;;;3.97;;
48667;SDS011;34453;52.198;5.004;2023-04-30T07:46:30;9.35;;;4.90;;
48667;SDS011;34453;52.198;5.004;2023-04-30T07:48:55;5.15;;;4.72;;
48667;SDS011;34453;52.198;5.004;2023-04-30T07:51:21;6.55;;;5.07;;
48667;SDS011;34453;52.198;5.004;2023-04-30T07:53:47;5.82;;;5.15;;
48667;SDS011;34453;52.198;5.004;2023-04-30T07:56:12;4.47;;;4.13;;
48667;SDS011;34453;52.198;5.004;2023-04-30T07:58:38;8.63;;;4.53;;
48667;SDS011;34453;52.198;5.004;2023-04-30T08:01:03;4.93;;;4.45;;
48667;SDS011;34453;52.198;5.004;2023-04-30T08:03:29;4.38;;;4.07;;
48667;SDS011;34453;52.198;5.004;2023-04-30T08:05:54;6.57;;;5.18;;
48667;SDS011;34453;52.198;5.004;2023-04-30T08:08:20;6.60;;;4.78;;
48667;SDS011;34453;52.198;5.004;2023-04-30T08:10:45;4.53;;;4.13;;
48667;SDS011;34453;52.198;5.004;2023-04-30T08:13:10;5.00;;;4.60;;
48667;SDS011;34453;52.198;5.004;2023-04-30T08:15:36;4.93;;;3.92;;
48667;SDS011;34453;52.198;5.004;2023-04-30T08:18:02;5.85;;;3.90;;
48667;SDS011;34453;52.198;5.004;2023-04-30T08:20:29;6.15;;;4.22;;
48667;SDS011;34453;52.198;5.004;2023-04-30T08:22:54;6.95;;;4.45;;
48667;SDS011;34453;52.198;5.004;2023-04-30T08:25:20;5.07;;;4.05;;
48667;SDS011;34453;52.198;5.004;2023-04-30T08:27:45;9.98;;;4.50;;
48667;SDS011;34453;52.198;5.004;2023-04-30T08:30:11;7.28;;;4.13;;
48667;SDS011;34453;52.198;5.004;2023-04-30T08:32:36;4.72;;;4.20;;
48667;SDS011;34453;52.198;5.004;2023-04-30T08:35:03;4.43;;;3.28;;
48667;SDS011;34453;52.198;5.004;2023-04-30T08:37:29;3.95;;;3.65;;
48667;SDS011;34453;52.198;5.004;2023-04-30T08:39:54;3.55;;;3.30;;
48667;SDS011;34453;52.198;5.004;2023-04-30T08:42:20;4.68;;;3.60;;
48667;SDS011;34453;52.198;5.004;2023-04-30T08:44:49;4.50;;;3.80;;
48667;SDS011;34453;52.198;5.004;2023-04-30T08:47:15;4.90;;;3.40;;
48667;SDS011;34453;52.198;5.004;2023-04-30T08:49:42;7.20;;;3.40;;
48667;SDS011;34453;52.198;5.004;2023-04-30T08:52:08;5.28;;;4.10;;
48667;SDS011;34453;52.198;5.004;2023-04-30T08:54:34;3.78;;;3.58;;
48667;SDS011;34453;52.198;5.004;2023-04-30T08:57:00;6.15;;;4.05;;
48667;SDS011;34453;52.198;5.004;2023-04-30T08:59:26;5.35;;;3.35;;
48667;SDS011;34453;52.198;5.004;2023-04-30T09:01:52;4.00;;;3.25;;
48667;SDS011;34453;52.198;5.004;2023-04-30T09:04:17;4.03;;;3.60;;
48667;SDS011;34453;52.198;5.004;2023-04-30T09:06:43;3.85;;;3.53;;
48667;SDS011;34453;52.198;5.004;2023-04-30T09:09:10;4.00;;;3.13;;
48667;SDS011;34453;52.198;5.004;2023-04-30T09:11:36;6.07;;;3.60;;
48667;SDS011;34453;52.198;5.004;2023-04-30T09:14:02;4.07;;;3.58;;
48667;SDS011;34453;52.198;5.004;2023-04-30T09:16:29;6.32;;;3.42;;
48667;SDS011;34453;52.198;5.004;2023-04-30T09:19:08;5.03;;;3.05;;
48667;SDS011;34453;52.198;5.004;2023-04-30T09:21:35;2.67;;;2.47;;
48667;SDS011;34453;52.198;5.004;2023-04-30T09:24:01;3.30;;;2.97;;
48667;SDS011;34453;52.198;5.004;2023-04-30T09:28:58;3.33;;;3.03;;
48667;SDS011;34453;52.198;5.004;2023-04-30T09:31:25;2.85;;;2.65;;
48667;SDS011;34453;52.198;5.004;2023-04-30T09:33:51;3.85;;;3.05;;
48667;SDS011;34453;52.198;5.004;2023-04-30T09:36:17;2.72;;;2.50;;
48667;SDS011;34453;52.198;5.004;2023-04-30T09:38:43;3.08;;;2.63;;
48667;SDS011;34453;52.198;5.004;2023-04-30T09:43:48;3.58;;;2.97;;
48667;SDS011;34453;52.198;5.004;2023-04-30T09:46:14;4.90;;;3.38;;
48667;SDS011;34453;52.198;5.004;2023-04-30T09:48:40;5.05;;;3.40;;
48667;SDS011;34453;52.198;5.004;2023-04-30T09:51:08;3.22;;;2.88;;
48667;SDS011;34453;52.198;5.004;2023-04-30T09:53:36;4.60;;;3.00;;
48667;SDS011;34453;52.198;5.004;2023-04-30T09:56:02;4.25;;;2.50;;
48667;SDS011;34453;52.198;5.004;2023-04-30T09:58:31;3.67;;;2.67;;
48667;SDS011;34453;52.198;5.004;2023-04-30T10:01:07;6.00;;;2.70;;
48667;SDS011;34453;52.198;5.004;2023-04-30T10:03:37;3.28;;;3.00;;
48667;SDS011;34453;52.198;5.004;2023-04-30T10:06:05;2.75;;;2.58;;
48667;SDS011;34453;52.198;5.004;2023-04-30T10:08:39;5.15;;;2.65;;
48667;SDS011;34453;52.198;5.004;2023-04-30T10:11:08;5.35;;;2.33;;
48667;SDS011;34453;52.198;5.004;2023-04-30T10:13:50;3.70;;;3.03;;
48667;SDS011;34453;52.198;5.004;2023-04-30T10:18:51;4.03;;;3.05;;
48667;SDS011;34453;52.198;5.004;2023-04-30T10:21:19;5.93;;;2.90;;
48667;SDS011;34453;52.198;5.004;2023-04-30T10:23:47;3.47;;;3.15;;
48667;SDS011;34453;52.198;5.004;2023-04-30T10:26:13;3.65;;;2.50;;
48667;SDS011;34453;52.198;5.004;2023-04-30T10:28:41;2.17;;;1.98;;
48667;SDS011;34453;52.198;5.004;2023-04-30T10:31:07;4.38;;;2.88;;
48667;SDS011;34453;52.198;5.004;2023-04-30T10:36:48;3.15;;;2.55;;
48667;SDS011;34453;52.198;5.004;2023-04-30T10:39:19;2.25;;;2.15;;
48667;SDS011;34453;52.198;5.004;2023-04-30T10:41:46;4.22;;;2.47;;
48667;SDS011;34453;52.198;5.004;2023-04-30T10:44:13;3.17;;;2.85;;
48667;SDS011;34453;52.198;5.004;2023-04-30T10:46:39;2.90;;;2.70;;
48667;SDS011;34453;52.198;5.004;2023-04-30T10:49:05;3.22;;;2.60;;
48667;SDS011;34453;52.198;5.004;2023-04-30T10:51:46;5.93;;;2.78;;
48667;SDS011;34453;52.198;5.004;2023-04-30T10:54:32;3.97;;;3.15;;
48667;SDS011;34453;52.198;5.004;2023-04-30T10:57:13;2.75;;;2.65;;
48667;SDS011;34453;52.198;5.004;2023-04-30T11:00:27;2.97;;;2.50;;
48667;SDS011;34453;52.198;5.004;2023-04-30T11:02:42;3.72;;;2.60;;
48667;SDS011;34453;52.198;5.004;2023-04-30T11:07:48;3.40;;;2.95;;
48667;SDS011;34453;52.198;5.004;2023-04-30T11:10:20;4.13;;;3.83;;
48667;SDS011;34453;52.198;5.004;2023-04-30T11:12:47;2.72;;;2.60;;
48667;SDS011;34453;52.198;5.004;2023-04-30T11:15:15;4.10;;;3.28;;
48667;SDS011;34453;52.198;5.004;2023-04-30T11:17:44;5.93;;;2.67;;
48667;SDS011;34453;52.198;5.004;2023-04-30T11:20:13;3.30;;;3.03;;
48667;SDS011;34453;52.198;5.004;2023-04-30T11:22:44;3.22;;;2.33;;
48667;SDS011;34453;52.198;5.004;2023-04-30T11:25:10;3.40;;;3.10;;
48667;SDS011;34453;52.198;5.004;2023-04-30T11:27:41;2.63;;;2.42;;
48667;SDS011;34453;52.198;5.004;2023-04-30T11:30:09;2.65;;;2.28;;
48667;SDS011;34453;52.198;5.004;2023-04-30T11:32:43;2.78;;;2.58;;
48667;SDS011;34453;52.198;5.004;2023-04-30T11:35:11;2.70;;;2.55;;
48667;SDS011;34453;52.198;5.004;2023-04-30T11:37:41;4.22;;;2.83;;
48667;SDS011;34453;52.198;5.004;2023-04-30T11:40:11;6.20;;;3.47;;
48667;SDS011;34453;52.198;5.004;2023-04-30T11:42:39;5.90;;;3.30;;
48667;SDS011;34453;52.198;5.004;2023-04-30T11:45:15;3.88;;;2.90;;
48667;SDS011;34453;52.198;5.004;2023-04-30T11:47:45;3.58;;;3.03;;
48667;SDS011;34453;52.198;5.004;2023-04-30T11:50:13;3.25;;;2.85;;
48667;SDS011;34453;52.198;5.004;2023-04-30T11:52:40;3.13;;;2.83;;
48667;SDS011;34453;52.198;5.004;2023-04-30T11:55:13;4.10;;;3.10;;
48667;SDS011;34453;52.198;5.004;2023-04-30T11:57:41;2.60;;;2.50;;
48667;SDS011;34453;52.198;5.004;2023-04-30T12:00:15;4.75;;;2.53;;
48667;SDS011;34453;52.198;5.004;2023-04-30T12:02:43;3.33;;;3.03;;
48667;SDS011;34453;52.198;5.004;2023-04-30T12:05:19;3.05;;;2.80;;
48667;SDS011;34453;52.198;5.004;2023-04-30T12:07:50;2.70;;;2.38;;
48667;SDS011;34453;52.198;5.004;2023-04-30T12:10:20;4.88;;;2.55;;
48667;SDS011;34453;52.198;5.004;2023-04-30T12:12:51;4.00;;;3.00;;
48667;SDS011;34453;52.198;5.004;2023-04-30T12:15:22;6.28;;;3.22;;
48667;SDS011;34453;52.198;5.004;2023-04-30T12:20:16;3.83;;;2.40;;
48667;SDS011;34453;52.198;5.004;2023-04-30T12:22:43;2.85;;;2.63;;
48667;SDS011;34453;52.198;5.004;2023-04-30T12:25:18;6.47;;;2.20;;
48667;SDS011;34453;52.198;5.004;2023-04-30T12:27:49;4.13;;;2.95;;
48667;SDS011;34453;52.198;5.004;2023-04-30T12:30:24;2.50;;;2.40;;
48667;SDS011;34453;52.198;5.004;2023-04-30T12:32:52;2.85;;;1.80;;
48667;SDS011;34453;52.198;5.004;2023-04-30T12:35:21;2.38;;;2.17;;
48667;SDS011;34453;52.198;5.004;2023-04-30T12:37:49;2.83;;;2.63;;
48667;SDS011;34453;52.198;5.004;2023-04-30T12:40:28;2.88;;;2.28;;
48667;SDS011;34453;52.198;5.004;2023-04-30T12:43:00;8.30;;;2.30;;
48667;SDS011;34453;52.198;5.004;2023-04-30T12:45:43;2.53;;;2.33;;
48667;SDS011;34453;52.198;5.004;2023-04-30T12:48:10;2.45;;;2.35;;
48667;SDS011;34453;52.198;5.004;2023-04-30T12:50:35;2.75;;;2.55;;
48667;SDS011;34453;52.198;5.004;2023-04-30T12:53:02;3.15;;;2.65;;
48667;SDS011;34453;52.198;5.004;2023-04-30T12:55:29;3.92;;;2.30;;
48667;SDS011;34453;52.198;5.004;2023-04-30T12:58:02;2.58;;;2.40;;
48667;SDS011;34453;52.198;5.004;2023-04-30T13:00:49;2.88;;;1.98;;
48667;SDS011;34453;52.198;5.004;2023-04-30T13:03:19;2.10;;;2.00;;
48667;SDS011;34453;52.198;5.004;2023-04-30T13:05:46;3.97;;;2.03;;
48667;SDS011;34453;52.198;5.004;2023-04-30T13:08:14;2.65;;;1.90;;
48667;SDS011;34453;52.198;5.004;2023-04-30T13:10:40;3.00;;;2.40;;
48667;SDS011;34453;52.198;5.004;2023-04-30T13:13:05;4.72;;;2.00;;
48667;SDS011;34453;52.198;5.004;2023-04-30T13:15:31;2.63;;;2.08;;
48667;SDS011;34453;52.198;5.004;2023-04-30T13:17:56;2.05;;;1.95;;
48667;SDS011;34453;52.198;5.004;2023-04-30T13:20:22;2.70;;;1.90;;
48667;SDS011;34453;52.198;5.004;2023-04-30T13:22:49;2.40;;;1.83;;
48667;SDS011;34453;52.198;5.004;2023-04-30T13:25:15;2.15;;;1.95;;
48667;SDS011;34453;52.198;5.004;2023-04-30T13:27:41;2.03;;;1.58;;
48667;SDS011;34453;52.198;5.004;2023-04-30T13:30:07;3.25;;;2.10;;
48667;SDS011;34453;52.198;5.004;2023-04-30T13:32:33;1.70;;;1.60;;
48667;SDS011;34453;52.198;5.004;2023-04-30T13:34:59;1.63;;;1.52;;
48667;SDS011;34453;52.198;5.004;2023-04-30T13:37:25;1.80;;;1.70;;
48667;SDS011;34453;52.198;5.004;2023-04-30T13:39:50;2.85;;;1.60;;
48667;SDS011;34453;52.198;5.004;2023-04-30T13:42:17;2.65;;;1.73;;
48667;SDS011;34453;52.198;5.004;2023-04-30T13:44:43;3.72;;;1.98;;
48667;SDS011;34453;52.198;5.004;2023-04-30T13:47:09;6.50;;;2.03;;
48667;SDS011;34453;52.198;5.004;2023-04-30T13:49:35;2.25;;;1.48;;
48667;SDS011;34453;52.198;5.004;2023-04-30T13:52:04;4.68;;;1.63;;
48667;SDS011;34453;52.198;5.004;2023-04-30T13:54:30;2.45;;;1.83;;
48667;SDS011;34453;52.198;5.004;2023-04-30T13:56:56;3.63;;;1.70;;
48667;SDS011;34453;52.198;5.004;2023-04-30T13:59:23;2.47;;;1.60;;
48667;SDS011;34453;52.198;5.004;2023-04-30T14:01:49;3.97;;;1.52;;
48667;SDS011;34453;52.198;5.004;2023-04-30T14:04:16;5.00;;;1.80;;
48667;SDS011;34453;52.198;5.004;2023-04-30T14:06:42;2.30;;;1.30;;
48667;SDS011;34453;52.198;5.004;2023-04-30T14:09:09;3.53;;;1.30;;
48667;SDS011;34453;52.198;5.004;2023-04-30T14:11:35;3.28;;;1.42;;
48667;SDS011;34453;52.198;5.004;2023-04-30T14:14:02;5.22;;;1.40;;
48667;SDS011;34453;52.198;5.004;2023-04-30T14:16:27;1.60;;;1.48;;
48667;SDS011;34453;52.198;5.004;2023-04-30T14:18:54;3.42;;;1.10;;
48667;SDS011;34453;52.198;5.004;2023-04-30T14:21:19;3.25;;;1.10;;
48667;SDS011;34453;52.198;5.004;2023-04-30T14:23:46;4.97;;;1.67;;
48667;SDS011;34453;52.198;5.004;2023-04-30T14:26:12;6.35;;;1.83;;
48667;SDS011;34453;52.198;5.004;2023-04-30T14:28:38;1.70;;;1.60;;
48667;SDS011;34453;52.198;5.004;2023-04-30T14:31:04;2.53;;;2.05;;
48667;SDS011;34453;52.198;5.004;2023-04-30T14:33:30;2.35;;;1.50;;
48667;SDS011;34453;52.198;5.004;2023-04-30T14:35:56;2.75;;;1.80;;
48667;SDS011;34453;52.198;5.004;2023-04-30T14:38:24;1.73;;;1.50;;
48667;SDS011;34453;52.198;5.004;2023-04-30T14:40:50;3.17;;;1.10;;
48667;SDS011;34453;52.198;5.004;2023-04-30T14:43:15;2.40;;;1.60;;
48667;SDS011;34453;52.198;5.004;2023-04-30T14:45:41;3.90;;;1.48;;
48667;SDS011;34453;52.198;5.004;2023-04-30T14:48:09;3.97;;;1.65;;
48667;SDS011;34453;52.198;5.004;2023-04-30T14:50:34;3.60;;;1.42;;
48667;SDS011;34453;52.198;5.004;2023-04-30T14:53:00;3.83;;;1.48;;
48667;SDS011;34453;52.198;5.004;2023-04-30T14:55:25;1.55;;;0.93;;
48667;SDS011;34453;52.198;5.004;2023-04-30T14:57:51;2.53;;;1.05;;
48667;SDS011;34453;52.198;5.004;2023-04-30T15:00:17;2.88;;;1.25;;
48667;SDS011;34453;52.198;5.004;2023-04-30T15:02:43;2.95;;;1.15;;
48667;SDS011;34453;52.198;5.004;2023-04-30T15:05:08;1.48;;;1.38;;
48667;SDS011;34453;52.198;5.004;2023-04-30T15:07:35;3.75;;;1.45;;
48667;SDS011;34453;52.198;5.004;2023-04-30T15:10:01;7.50;;;1.02;;
48667;SDS011;34453;52.198;5.004;2023-04-30T15:12:27;2.70;;;1.20;;
48667;SDS011;34453;52.198;5.004;2023-04-30T15:14:53;2.58;;;2.00;;